PWSweather.com
Personal Weather Stations
Station Observations
GRD01
Warsaw, LesznoPL 05-084

WarsawLesznoPL 05-084

Lat: 52.257404, Lon: 20.564847

Elevation: 298

Station Type: WH3080

http://pogoda.kampinos.waw.pl

High Low Average
Temperature 72.5°F22.5°C 57.4°F14.1°C 67.1°F19.5°C
Dew Point 62.9°F17.2°C 51.5°F10.8°C 58.2°F14.6°C
Winds 13.6 mph 21.9 kmh Calm Calm 6.0 mph WNW9.7 kmh WNW
Wind Gusts 24.4 mph39.3 kmh 2.2 mph3.5 kmh 11.0 mph17.7 kmh
Humidity 92% 60% 74%
Pressure 30.61 in1036.6 mb 30.28 in1025.4 mb -
Precipitation 0.11 in2.8 mm - -
Hour Temp Dew Point Humidity Winds Wind Gusts Pressure Precip Precip Rate Daily Precip Total
12:00 AM 70.9°F21.6°C 60.6°F15.9°C 70% 3.1 mph SE5.0 kmh SE 4.5 mph7.2 kmh 30.28 in1025.4 mb 0.00 in0.0 mm 0.00 in0.0 mm 0.00 in0.0 mm
12:05 AM 70.9°F21.6°C 60.6°F15.9°C 70% 1.6 mph S2.6 kmh S 3.8 mph6.1 kmh 29.85 in1010.8 mb 0.00 in0.0 mm 0.00 in0.0 mm 0.00 in0.0 mm
12:15 AM 70.9°F21.6°C 60.6°F15.9°C 70% 3.1 mph SSE5.0 kmh SSE 4.5 mph7.2 kmh 30.29 in1025.7 mb 0.00 in0.0 mm 0.00 in0.0 mm 0.00 in0.0 mm
12:30 AM 70.3°F21.3°C 60.1°F15.6°C 70% Calm Calm 2.2 mph3.5 kmh 30.29 in1025.7 mb 0.00 in0.0 mm 0.00 in0.0 mm 0.00 in0.0 mm
12:35 AM 70.5°F21.4°C 60.3°F15.7°C 70% Calm Calm 0.7 mph1.1 kmh 29.84 in1010.5 mb 0.00 in0.0 mm 0.00 in0.0 mm 0.00 in0.0 mm
12:45 AM 69.6°F20.9°C 59.8°F15.4°C 71% 1.6 mph SE2.6 kmh SE 3.1 mph5.0 kmh 30.29 in1025.7 mb 0.00 in0.0 mm 0.00 in0.0 mm 0.00 in0.0 mm
01:00 AM 69.3°F20.7°C 59.5°F15.3°C 71% 1.6 mph SE2.6 kmh SE 3.8 mph6.1 kmh 30.29 in1025.7 mb 0.00 in0.0 mm 0.00 in0.0 mm 0.00 in0.0 mm
01:05 AM 69.3°F20.7°C 59.5°F15.3°C 71% 1.6 mph SE2.6 kmh SE 2.2 mph3.5 kmh 29.84 in1010.5 mb 0.00 in0.0 mm 0.00 in0.0 mm 0.00 in0.0 mm
01:15 AM 68.5°F20.3°C 59.2°F15.1°C 72% 0.7 mph SE1.1 kmh SE 2.2 mph3.5 kmh 30.29 in1025.7 mb 0.00 in0.0 mm 0.00 in0.0 mm 0.00 in0.0 mm
01:30 AM 68.0°F20.0°C 59.0°F15.0°C 73% 0.7 mph SE1.1 kmh SE 2.2 mph3.5 kmh 30.30 in1026.1 mb 0.00 in0.0 mm 0.00 in0.0 mm 0.00 in0.0 mm
01:35 AM 68.0°F20.0°C 59.0°F15.0°C 73% 1.6 mph SE2.6 kmh SE 1.6 mph2.6 kmh 29.85 in1010.8 mb 0.00 in0.0 mm 0.00 in0.0 mm 0.00 in0.0 mm
01:45 AM 68.0°F20.0°C 59.4°F15.2°C 74% Calm Calm 3.1 mph5.0 kmh 30.30 in1026.1 mb 0.00 in0.0 mm 0.00 in0.0 mm 0.00 in0.0 mm
02:00 AM 68.0°F20.0°C 59.4°F15.2°C 74% 1.6 mph S2.6 kmh S 2.2 mph3.5 kmh 30.29 in1025.7 mb 0.00 in0.0 mm 0.00 in0.0 mm 0.00 in0.0 mm
02:05 AM 68.0°F20.0°C 59.4°F15.2°C 74% 1.6 mph S2.6 kmh S 2.2 mph3.5 kmh 29.85 in1010.8 mb 0.00 in0.0 mm 0.00 in0.0 mm 0.00 in0.0 mm
02:15 AM 67.8°F19.9°C 58.8°F14.9°C 73% 0.7 mph S1.1 kmh S 3.8 mph6.1 kmh 30.29 in1025.7 mb 0.00 in0.0 mm 0.00 in0.0 mm 0.00 in0.0 mm
02:30 AM 67.8°F19.9°C 58.5°F14.7°C 72% 1.6 mph S2.6 kmh S 3.8 mph6.1 kmh 30.29 in1025.7 mb 0.00 in0.0 mm 0.00 in0.0 mm 0.00 in0.0 mm
02:35 AM 67.8°F19.9°C 58.5°F14.7°C 72% 1.6 mph S2.6 kmh S 3.1 mph5.0 kmh 29.85 in1010.8 mb 0.00 in0.0 mm 0.00 in0.0 mm 0.00 in0.0 mm
02:45 AM 67.6°F19.8°C 58.3°F14.6°C 72% 0.7 mph S1.1 kmh S 2.2 mph3.5 kmh 30.30 in1026.1 mb 0.00 in0.0 mm 0.00 in0.0 mm 0.00 in0.0 mm
03:00 AM 67.5°F19.7°C 58.1°F14.5°C 72% 1.6 mph S2.6 kmh S 3.8 mph6.1 kmh 30.30 in1026.1 mb 0.00 in0.0 mm 0.00 in0.0 mm 0.00 in0.0 mm
03:05 AM 67.5°F19.7°C 58.1°F14.5°C 72% 1.6 mph S2.6 kmh S 2.2 mph3.5 kmh 29.85 in1010.8 mb 0.00 in0.0 mm 0.00 in0.0 mm 0.00 in0.0 mm
03:15 AM 66.9°F19.4°C 58.0°F14.4°C 73% 0.7 mph S1.1 kmh S 2.2 mph3.5 kmh 30.30 in1026.1 mb 0.00 in0.0 mm 0.00 in0.0 mm 0.00 in0.0 mm
03:30 AM 66.6°F19.2°C 58.0°F14.4°C 74% 1.6 mph S2.6 kmh S 2.2 mph3.5 kmh 30.30 in1026.1 mb 0.00 in0.0 mm 0.00 in0.0 mm 0.00 in0.0 mm
03:35 AM 66.6°F19.2°C 58.0°F14.4°C 74% 1.6 mph S2.6 kmh S 2.2 mph3.5 kmh 29.86 in1011.2 mb 0.00 in0.0 mm 0.00 in0.0 mm 0.00 in0.0 mm
03:45 AM 66.6°F19.2°C 58.4°F14.7°C 75% 4.5 mph WSW7.2 kmh WSW 6.9 mph11.1 kmh 30.30 in1026.1 mb 0.00 in0.0 mm 0.00 in0.0 mm 0.00 in0.0 mm
04:00 AM 66.7°F19.3°C 58.9°F14.9°C 76% 6.0 mph NW9.7 kmh NW 7.6 mph12.2 kmh 30.31 in1026.4 mb 0.00 in0.0 mm 0.00 in0.0 mm 0.00 in0.0 mm
04:05 AM 66.7°F19.3°C 58.6°F14.8°C 75% 3.1 mph NW5.0 kmh NW 4.5 mph7.2 kmh 29.86 in1011.2 mb 0.00 in0.0 mm 0.00 in0.0 mm 0.00 in0.0 mm
04:15 AM 66.7°F19.3°C 58.9°F14.9°C 76% 2.2 mph NW3.5 kmh NW 7.6 mph12.2 kmh 30.32 in1026.8 mb 0.00 in0.0 mm 0.00 in0.0 mm 0.00 in0.0 mm
04:30 AM 66.6°F19.2°C 59.5°F15.3°C 78% 1.6 mph W2.6 kmh W 6.9 mph11.1 kmh 30.32 in1026.8 mb 0.00 in0.0 mm 0.00 in0.0 mm 0.00 in0.0 mm
04:35 AM 66.6°F19.2°C 59.5°F15.3°C 78% 1.6 mph W2.6 kmh W 2.2 mph3.5 kmh 29.88 in1011.9 mb 0.00 in0.0 mm 0.00 in0.0 mm 0.00 in0.0 mm
04:45 AM 66.4°F19.1°C 59.7°F15.4°C 79% 1.6 mph W2.6 kmh W 6.0 mph9.7 kmh 30.33 in1027.1 mb 0.00 in0.0 mm 0.00 in0.0 mm 0.00 in0.0 mm
05:00 AM 66.4°F19.1°C 60.0°F15.6°C 80% 3.1 mph WSW5.0 kmh WSW 6.0 mph9.7 kmh 30.34 in1027.4 mb 0.00 in0.0 mm 0.00 in0.0 mm 0.00 in0.0 mm
05:05 AM 66.4°F19.1°C 60.0°F15.6°C 80% 4.5 mph W7.2 kmh W 5.4 mph8.7 kmh 29.89 in1012.2 mb 0.00 in0.0 mm 0.00 in0.0 mm 0.00 in0.0 mm
05:15 AM 66.2°F19.0°C 60.2°F15.7°C 81% 4.5 mph W7.2 kmh W 7.6 mph12.2 kmh 30.34 in1027.4 mb 0.00 in0.0 mm 0.00 in0.0 mm 0.00 in0.0 mm
05:30 AM 66.4°F19.1°C 60.7°F15.9°C 82% 4.5 mph WNW7.2 kmh WNW 9.8 mph15.8 kmh 30.35 in1027.8 mb 0.00 in0.0 mm 0.00 in0.0 mm 0.00 in0.0 mm
05:35 AM 66.4°F19.1°C 60.7°F15.9°C 82% 4.5 mph NW7.2 kmh NW 6.9 mph11.1 kmh 29.91 in1012.9 mb 0.00 in0.0 mm 0.00 in0.0 mm 0.00 in0.0 mm
05:45 AM 66.7°F19.3°C 61.4°F16.3°C 83% 6.0 mph W9.7 kmh W 11.4 mph18.3 kmh 30.36 in1028.1 mb 0.00 in0.0 mm 0.00 in0.0 mm 0.00 in0.0 mm
06:00 AM 67.3°F19.6°C 61.9°F16.6°C 83% 6.9 mph NW11.1 kmh NW 11.4 mph18.3 kmh 30.37 in1028.4 mb 0.00 in0.0 mm 0.00 in0.0 mm 0.00 in0.0 mm
06:05 AM 67.1°F19.5°C 61.8°F16.6°C 83% 8.3 mph N13.4 kmh N 11.4 mph18.3 kmh 29.92 in1013.2 mb 0.00 in0.0 mm 0.00 in0.0 mm 0.00 in0.0 mm
06:15 AM 67.8°F19.9°C 62.5°F16.9°C 83% 10.7 mph NW17.2 kmh NW 13.6 mph21.9 kmh 30.37 in1028.4 mb 0.00 in0.0 mm 0.00 in0.0 mm 0.00 in0.0 mm
06:30 AM 68.2°F20.1°C 62.5°F16.9°C 82% 7.6 mph NW12.2 kmh NW 12.1 mph19.5 kmh 30.38 in1028.8 mb 0.00 in0.0 mm 0.00 in0.0 mm 0.00 in0.0 mm
06:35 AM 68.2°F20.1°C 62.5°F16.9°C 82% 7.6 mph N12.2 kmh N 9.8 mph15.8 kmh 29.93 in1013.5 mb 0.00 in0.0 mm 0.00 in0.0 mm 0.00 in0.0 mm
06:45 AM 68.5°F20.3°C 62.5°F16.9°C 81% 5.4 mph NW8.7 kmh NW 14.5 mph23.3 kmh 30.38 in1028.8 mb 0.00 in0.0 mm 0.00 in0.0 mm 0.00 in0.0 mm
07:00 AM 68.9°F20.5°C 62.8°F17.1°C 81% 11.4 mph W18.3 kmh W 14.5 mph23.3 kmh 30.39 in1029.1 mb 0.00 in0.0 mm 0.00 in0.0 mm 0.00 in0.0 mm
07:05 AM 68.9°F20.5°C 62.8°F17.1°C 81% 11.4 mph W18.3 kmh W 14.5 mph23.3 kmh 29.94 in1013.9 mb 0.00 in0.0 mm 0.00 in0.0 mm 0.00 in0.0 mm
07:15 AM 69.3°F20.7°C 62.5°F16.9°C 79% 7.6 mph NW12.2 kmh NW 14.5 mph23.3 kmh 30.39 in1029.1 mb 0.00 in0.0 mm 0.00 in0.0 mm 0.00 in0.0 mm
07:30 AM 69.8°F21.0°C 62.6°F17.0°C 78% 6.9 mph NW11.1 kmh NW 13.6 mph21.9 kmh 30.40 in1029.5 mb 0.00 in0.0 mm 0.00 in0.0 mm 0.00 in0.0 mm
07:35 AM 69.6°F20.9°C 62.5°F16.9°C 78% 6.0 mph NW9.7 kmh NW 8.3 mph13.4 kmh 29.95 in1014.2 mb 0.00 in0.0 mm 0.00 in0.0 mm 0.00 in0.0 mm
07:45 AM 70.3°F21.3°C 62.4°F16.9°C 76% 8.3 mph NW13.4 kmh NW 19.0 mph30.6 kmh 30.40 in1029.5 mb 0.00 in0.0 mm 0.00 in0.0 mm 0.00 in0.0 mm
08:00 AM 70.2°F21.2°C 62.2°F16.8°C 76% 10.7 mph NW17.2 kmh NW 14.5 mph23.3 kmh 30.40 in1029.5 mb 0.00 in0.0 mm 0.00 in0.0 mm 0.00 in0.0 mm
08:05 AM 70.2°F21.2°C 62.2°F16.8°C 76% 7.6 mph NW12.2 kmh NW 9.8 mph15.8 kmh 29.96 in1014.6 mb 0.00 in0.0 mm 0.00 in0.0 mm 0.00 in0.0 mm
08:15 AM 70.3°F21.3°C 62.0°F16.7°C 75% 3.1 mph NW5.0 kmh NW 13.0 mph20.9 kmh 30.41 in1029.8 mb 0.00 in0.0 mm 0.00 in0.0 mm 0.00 in0.0 mm
08:30 AM 70.7°F21.5°C 62.4°F16.9°C 75% 6.0 mph NW9.7 kmh NW 12.1 mph19.5 kmh 30.41 in1029.8 mb 0.00 in0.0 mm 0.00 in0.0 mm 0.00 in0.0 mm
08:35 AM 70.7°F21.5°C 62.4°F16.9°C 75% 7.6 mph NW12.2 kmh NW 9.2 mph14.8 kmh 29.97 in1014.9 mb 0.00 in0.0 mm 0.00 in0.0 mm 0.00 in0.0 mm
08:45 AM 70.9°F21.6°C 62.6°F17.0°C 75% 9.2 mph NW14.8 kmh NW 15.9 mph25.6 kmh 30.41 in1029.8 mb 0.00 in0.0 mm 0.00 in0.0 mm 0.00 in0.0 mm
09:00 AM 71.2°F21.8°C 62.9°F17.2°C 75% 4.5 mph NW7.2 kmh NW 13.0 mph20.9 kmh 30.42 in1030.1 mb 0.00 in0.0 mm 0.00 in0.0 mm 0.00 in0.0 mm
09:05 AM 71.1°F21.7°C 62.7°F17.1°C 75% 5.4 mph W8.7 kmh W 6.9 mph11.1 kmh 29.97 in1014.9 mb 0.00 in0.0 mm 0.00 in0.0 mm 0.00 in0.0 mm
09:15 AM 71.2°F21.8°C 62.5°F16.9°C 74% 6.0 mph NW9.7 kmh NW 14.5 mph23.3 kmh 30.43 in1030.5 mb 0.00 in0.0 mm 0.00 in0.0 mm 0.00 in0.0 mm
09:30 AM 71.2°F21.8°C 62.1°F16.7°C 73% 8.3 mph NW13.4 kmh NW 14.5 mph23.3 kmh 30.43 in1030.5 mb 0.00 in0.0 mm 0.00 in0.0 mm 0.00 in0.0 mm
09:35 AM 71.2°F21.8°C 62.1°F16.7°C 73% 6.9 mph NW11.1 kmh NW 10.7 mph17.2 kmh 29.98 in1015.2 mb 0.00 in0.0 mm 0.00 in0.0 mm 0.00 in0.0 mm
09:45 AM 71.1°F21.7°C 62.4°F16.9°C 74% 9.8 mph NW15.8 kmh NW 12.1 mph19.5 kmh 30.43 in1030.5 mb 0.00 in0.0 mm 0.00 in0.0 mm 0.00 in0.0 mm
10:00 AM 71.2°F21.8°C 62.1°F16.7°C 73% 8.3 mph NW13.4 kmh NW 13.6 mph21.9 kmh 30.43 in1030.5 mb 0.00 in0.0 mm 0.00 in0.0 mm 0.00 in0.0 mm
10:05 AM 71.2°F21.8°C 62.1°F16.7°C 73% 7.6 mph NW12.2 kmh NW 8.3 mph13.4 kmh 29.99 in1015.6 mb 0.00 in0.0 mm 0.00 in0.0 mm 0.00 in0.0 mm
10:15 AM 72.0°F22.2°C 62.4°F16.9°C 72% 6.0 mph NW9.7 kmh NW 13.0 mph20.9 kmh 30.44 in1030.8 mb 0.00 in0.0 mm 0.00 in0.0 mm 0.00 in0.0 mm
10:30 AM 72.0°F22.2°C 62.0°F16.7°C 71% 6.0 mph NW9.7 kmh NW 11.4 mph18.3 kmh 30.45 in1031.2 mb 0.00 in0.0 mm 0.00 in0.0 mm 0.00 in0.0 mm
10:35 AM 72.0°F22.2°C 62.0°F16.7°C 71% 7.6 mph W12.2 kmh W 9.2 mph14.8 kmh 30.00 in1015.9 mb 0.00 in0.0 mm 0.00 in0.0 mm 0.00 in0.0 mm
10:45 AM 72.1°F22.3°C 61.8°F16.6°C 70% 6.0 mph NW9.7 kmh NW 11.4 mph18.3 kmh 30.45 in1031.2 mb 0.00 in0.0 mm 0.00 in0.0 mm 0.00 in0.0 mm
11:00 AM 71.8°F22.1°C 61.5°F16.4°C 70% 10.7 mph NW17.2 kmh NW 13.6 mph21.9 kmh 30.46 in1031.5 mb 0.00 in0.0 mm 0.00 in0.0 mm 0.00 in0.0 mm
11:05 AM 72.0°F22.2°C 61.6°F16.4°C 70% 7.6 mph N12.2 kmh N 10.7 mph17.2 kmh 30.02 in1016.6 mb 0.00 in0.0 mm 0.00 in0.0 mm 0.00 in0.0 mm
11:15 AM 72.1°F22.3°C 61.4°F16.3°C 69% 6.9 mph NW11.1 kmh NW 12.1 mph19.5 kmh 30.46 in1031.5 mb 0.00 in0.0 mm 0.00 in0.0 mm 0.00 in0.0 mm
11:30 AM 72.1°F22.3°C 59.3°F15.2°C 64% 9.2 mph NNW14.8 kmh NNW 15.9 mph25.6 kmh 30.47 in1031.8 mb 0.00 in0.0 mm 0.00 in0.0 mm 0.00 in0.0 mm
11:35 AM 72.1°F22.3°C 59.3°F15.2°C 64% 10.7 mph NNW17.2 kmh NNW 13.0 mph20.9 kmh 30.02 in1016.6 mb 0.00 in0.0 mm 0.00 in0.0 mm 0.00 in0.0 mm
11:45 AM 71.8°F22.1°C 59.4°F15.2°C 65% 9.8 mph NNW15.8 kmh NNW 15.9 mph25.6 kmh 30.47 in1031.8 mb 0.00 in0.0 mm 0.00 in0.0 mm 0.00 in0.0 mm
12:00 PM 70.7°F21.5°C 59.6°F15.3°C 68% 6.9 mph NNW11.1 kmh NNW 15.9 mph25.6 kmh 30.47 in1031.8 mb 0.00 in0.0 mm 0.00 in0.0 mm 0.00 in0.0 mm
12:05 PM 70.9°F21.6°C 59.4°F15.2°C 67% 9.8 mph NE15.8 kmh NE 13.0 mph20.9 kmh 30.03 in1016.9 mb 0.00 in0.0 mm 0.00 in0.0 mm 0.00 in0.0 mm
12:15 PM 70.2°F21.2°C 59.9°F15.5°C 70% 6.9 mph NNW11.1 kmh NNW 11.4 mph18.3 kmh 30.48 in1032.2 mb 0.00 in0.0 mm 0.00 in0.0 mm 0.00 in0.0 mm
12:30 PM 70.2°F21.2°C 59.9°F15.5°C 70% 9.8 mph NW15.8 kmh NW 14.5 mph23.3 kmh 30.48 in1032.2 mb 0.00 in0.0 mm 0.00 in0.0 mm 0.00 in0.0 mm
12:35 PM 70.2°F21.2°C 59.9°F15.5°C 70% 9.8 mph NW15.8 kmh NW 11.4 mph18.3 kmh 30.03 in1016.9 mb 0.00 in0.0 mm 0.00 in0.0 mm 0.00 in0.0 mm
12:45 PM 70.5°F21.4°C 60.3°F15.7°C 70% 6.9 mph NNW11.1 kmh NNW 11.4 mph18.3 kmh 30.48 in1032.2 mb 0.00 in0.0 mm 0.00 in0.0 mm 0.00 in0.0 mm
01:00 PM 70.9°F21.6°C 60.6°F15.9°C 70% 9.2 mph WNW14.8 kmh WNW 11.4 mph18.3 kmh 30.48 in1032.2 mb 0.00 in0.0 mm 0.00 in0.0 mm 0.00 in0.0 mm
01:05 PM 70.9°F21.6°C 60.6°F15.9°C 70% 9.2 mph W14.8 kmh W 10.7 mph17.2 kmh 30.04 in1017.3 mb 0.00 in0.0 mm 0.00 in0.0 mm 0.00 in0.0 mm
01:15 PM 71.6°F22.0°C 60.9°F16.1°C 69% 9.2 mph NNW14.8 kmh NNW 14.5 mph23.3 kmh 30.48 in1032.2 mb 0.00 in0.0 mm 0.00 in0.0 mm 0.00 in0.0 mm
01:30 PM 72.1°F22.3°C 61.0°F16.1°C 68% 7.6 mph NW12.2 kmh NW 14.5 mph23.3 kmh 30.47 in1031.8 mb 0.00 in0.0 mm 0.00 in0.0 mm 0.00 in0.0 mm
01:35 PM 72.1°F22.3°C 61.0°F16.1°C 68% 13.0 mph NW20.9 kmh NW 14.5 mph23.3 kmh 30.03 in1016.9 mb 0.00 in0.0 mm 0.00 in0.0 mm 0.00 in0.0 mm
01:45 PM 72.5°F22.5°C 59.2°F15.1°C 63% 12.1 mph NNW19.5 kmh NNW 19.7 mph31.7 kmh 30.48 in1032.2 mb 0.00 in0.0 mm 0.00 in0.0 mm 0.00 in0.0 mm
02:00 PM 71.8°F22.1°C 59.8°F15.4°C 66% 11.4 mph NW18.3 kmh NW 22.1 mph35.6 kmh 30.48 in1032.2 mb 0.00 in0.0 mm 0.00 in0.0 mm 0.00 in0.0 mm
02:05 PM 71.8°F22.1°C 59.8°F15.4°C 66% 14.5 mph N23.3 kmh N 20.6 mph33.2 kmh 30.04 in1017.3 mb 0.00 in0.0 mm 0.00 in0.0 mm 0.00 in0.0 mm
02:15 PM 71.2°F21.8°C 59.7°F15.4°C 67% 8.3 mph N13.4 kmh N 15.9 mph25.6 kmh 30.48 in1032.2 mb 0.00 in0.0 mm 0.00 in0.0 mm 0.00 in0.0 mm
02:30 PM 70.7°F21.5°C 58.8°F14.9°C 66% 13.6 mph N21.9 kmh N 24.4 mph39.3 kmh 30.49 in1032.5 mb 0.00 in0.0 mm 0.00 in0.0 mm 0.00 in0.0 mm
02:35 PM 70.7°F21.5°C 58.8°F14.9°C 66% 13.6 mph NW21.9 kmh NW 16.8 mph27.0 kmh 30.04 in1017.3 mb 0.00 in0.0 mm 0.00 in0.0 mm 0.00 in0.0 mm
02:45 PM 70.5°F21.4°C 57.8°F14.3°C 64% 10.7 mph NW17.2 kmh NW 16.8 mph27.0 kmh 30.49 in1032.5 mb 0.00 in0.0 mm 0.00 in0.0 mm 0.00 in0.0 mm
03:00 PM 70.3°F21.3°C 56.2°F13.4°C 61% 9.2 mph NNW14.8 kmh NNW 16.8 mph27.0 kmh 30.50 in1032.8 mb 0.00 in0.0 mm 0.00 in0.0 mm 0.00 in0.0 mm
03:05 PM 70.5°F21.4°C 56.4°F13.6°C 61% 8.3 mph NW13.4 kmh NW 11.4 mph18.3 kmh 30.05 in1017.6 mb 0.00 in0.0 mm 0.00 in0.0 mm 0.00 in0.0 mm
03:15 PM 70.2°F21.2°C 56.1°F13.4°C 61% 9.2 mph NW14.8 kmh NW 13.6 mph21.9 kmh 30.50 in1032.8 mb 0.00 in0.0 mm 0.00 in0.0 mm 0.00 in0.0 mm
03:30 PM 70.2°F21.2°C 55.6°F13.1°C 60% 9.2 mph NW14.8 kmh NW 13.0 mph20.9 kmh 30.50 in1032.8 mb 0.00 in0.0 mm 0.00 in0.0 mm 0.00 in0.0 mm
03:35 PM 70.2°F21.2°C 55.6°F13.1°C 60% 7.6 mph W12.2 kmh W 9.2 mph14.8 kmh 30.05 in1017.6 mb 0.00 in0.0 mm 0.00 in0.0 mm 0.00 in0.0 mm
03:45 PM 70.0°F21.1°C 55.9°F13.3°C 61% 8.3 mph NW13.4 kmh NW 12.1 mph19.5 kmh 30.50 in1032.8 mb 0.00 in0.0 mm 0.00 in0.0 mm 0.00 in0.0 mm
04:00 PM 69.8°F21.0°C 55.7°F13.2°C 61% 3.8 mph NW6.1 kmh NW 8.3 mph13.4 kmh 30.49 in1032.5 mb 0.00 in0.0 mm 0.00 in0.0 mm 0.00 in0.0 mm
04:05 PM 69.8°F21.0°C 55.7°F13.2°C 61% 4.5 mph NW7.2 kmh NW 6.9 mph11.1 kmh 30.06 in1017.9 mb 0.00 in0.0 mm 0.00 in0.0 mm 0.00 in0.0 mm
04:15 PM 69.6°F20.9°C 55.6°F13.1°C 61% 6.0 mph NW9.7 kmh NW 9.8 mph15.8 kmh 30.50 in1032.8 mb 0.00 in0.0 mm 0.00 in0.0 mm 0.00 in0.0 mm
04:30 PM 69.3°F20.7°C 55.2°F12.9°C 61% 6.0 mph NW9.7 kmh NW 11.4 mph18.3 kmh 30.50 in1032.8 mb 0.00 in0.0 mm 0.00 in0.0 mm 0.00 in0.0 mm
04:35 PM 69.3°F20.7°C 55.2°F12.9°C 61% 6.9 mph NW11.1 kmh NW 11.4 mph18.3 kmh 30.05 in1017.6 mb 0.00 in0.0 mm 0.00 in0.0 mm 0.00 in0.0 mm
04:45 PM 68.7°F20.4°C 55.2°F12.9°C 62% 6.9 mph NW11.1 kmh NW 15.9 mph25.6 kmh 30.50 in1032.8 mb 0.00 in0.0 mm 0.00 in0.0 mm 0.00 in0.0 mm
05:00 PM 68.0°F20.0°C 54.9°F12.7°C 63% 11.4 mph NNW18.3 kmh NNW 19.7 mph31.7 kmh 30.50 in1032.8 mb 0.00 in0.0 mm 0.00 in0.0 mm 0.00 in0.0 mm
05:05 PM 68.0°F20.0°C 54.9°F12.7°C 63% 8.3 mph NW13.4 kmh NW 9.8 mph15.8 kmh 30.06 in1017.9 mb 0.00 in0.0 mm 0.00 in0.0 mm 0.00 in0.0 mm
05:15 PM 67.3°F19.6°C 54.7°F12.6°C 64% 9.8 mph NNW15.8 kmh NNW 17.4 mph28.0 kmh 30.51 in1033.2 mb 0.00 in0.0 mm 0.00 in0.0 mm 0.00 in0.0 mm
05:30 PM 66.6°F19.2°C 54.4°F12.4°C 65% 13.6 mph NNW21.9 kmh NNW 19.7 mph31.7 kmh 30.51 in1033.2 mb 0.00 in0.0 mm 0.00 in0.0 mm 0.00 in0.0 mm
05:35 PM 66.7°F19.3°C 54.6°F12.6°C 65% 10.7 mph N17.2 kmh N 16.8 mph27.0 kmh 30.07 in1018.3 mb 0.00 in0.0 mm 0.00 in0.0 mm 0.00 in0.0 mm
05:45 PM 66.2°F19.0°C 54.5°F12.5°C 66% 9.2 mph NNW14.8 kmh NNW 15.2 mph24.5 kmh 30.51 in1033.2 mb 0.00 in0.0 mm 0.00 in0.0 mm 0.00 in0.0 mm
06:00 PM 65.8°F18.8°C 54.2°F12.3°C 66% 6.0 mph NW9.7 kmh NW 14.5 mph23.3 kmh 30.53 in1033.9 mb 0.00 in0.0 mm 0.00 in0.0 mm 0.00 in0.0 mm
06:05 PM 65.8°F18.8°C 54.2°F12.3°C 66% 9.2 mph NW14.8 kmh NW 10.7 mph17.2 kmh 30.08 in1018.6 mb 0.00 in0.0 mm 0.00 in0.0 mm 0.00 in0.0 mm
06:15 PM 65.5°F18.6°C 53.8°F12.1°C 66% 10.7 mph NW17.2 kmh NW 13.0 mph20.9 kmh 30.52 in1033.5 mb 0.00 in0.0 mm 0.00 in0.0 mm 0.00 in0.0 mm
06:30 PM 64.9°F18.3°C 52.5°F11.4°C 64% 9.2 mph NW14.8 kmh NW 14.5 mph23.3 kmh 30.53 in1033.9 mb 0.00 in0.0 mm 0.00 in0.0 mm 0.00 in0.0 mm
06:35 PM 65.1°F18.4°C 52.6°F11.4°C 64% 7.6 mph NW12.2 kmh NW 9.8 mph15.8 kmh 30.08 in1018.6 mb 0.00 in0.0 mm 0.00 in0.0 mm 0.00 in0.0 mm
06:45 PM 64.4°F18.0°C 51.5°F10.8°C 63% 12.1 mph NW19.5 kmh NW 15.9 mph25.6 kmh 30.54 in1034.2 mb 0.00 in0.0 mm 0.00 in0.0 mm 0.00 in0.0 mm
07:00 PM 63.5°F17.5°C 51.9°F11.1°C 66% 13.6 mph NW21.9 kmh NW 15.9 mph25.6 kmh 30.54 in1034.2 mb 0.00 in0.0 mm 0.00 in0.0 mm 0.00 in0.0 mm
07:05 PM 63.5°F17.5°C 51.9°F11.1°C 66% 13.6 mph NW21.9 kmh NW 15.9 mph25.6 kmh 30.10 in1019.3 mb 0.00 in0.0 mm 0.00 in0.0 mm 0.00 in0.0 mm
07:15 PM 61.0°F16.1°C 52.6°F11.4°C 74% 6.9 mph NNW11.1 kmh NNW 8.3 mph13.4 kmh 30.55 in1034.5 mb 0.00 in0.0 mm 0.00 in0.0 mm 0.00 in0.0 mm
07:30 PM 60.8°F16.0°C 52.8°F11.6°C 75% 7.6 mph NW12.2 kmh NW 8.3 mph13.4 kmh 30.55 in1034.5 mb 0.00 in0.0 mm 0.00 in0.0 mm 0.00 in0.0 mm
07:35 PM 60.8°F16.0°C 52.8°F11.6°C 75% 6.9 mph N11.1 kmh N 8.3 mph13.4 kmh 30.11 in1019.6 mb 0.00 in0.0 mm 0.00 in0.0 mm 0.00 in0.0 mm
07:45 PM 60.6°F15.9°C 51.9°F11.1°C 73% 6.0 mph NW9.7 kmh NW 10.7 mph17.2 kmh 30.56 in1034.9 mb 0.00 in0.0 mm 0.00 in0.0 mm 0.00 in0.0 mm
08:00 PM 60.6°F15.9°C 52.3°F11.3°C 74% 10.7 mph NW17.2 kmh NW 14.5 mph23.3 kmh 30.57 in1035.2 mb 0.00 in0.0 mm 0.00 in0.0 mm 0.00 in0.0 mm
08:05 PM 60.6°F15.9°C 51.9°F11.1°C 73% 5.4 mph N8.7 kmh N 8.3 mph13.4 kmh 30.12 in1020.0 mb 0.00 in0.0 mm 0.00 in0.0 mm 0.00 in0.0 mm
08:15 PM 60.1°F15.6°C 52.5°F11.4°C 76% 5.4 mph NW8.7 kmh NW 10.7 mph17.2 kmh 30.57 in1035.2 mb 0.00 in0.0 mm 0.00 in0.0 mm 0.00 in0.0 mm
08:30 PM 59.0°F15.0°C 52.8°F11.6°C 80% 5.4 mph NW8.7 kmh NW 9.2 mph14.8 kmh 30.57 in1035.2 mb 0.01 in0.3 mm 0.04 in1.0 mm 0.01 in0.3 mm
08:35 PM 59.2°F15.1°C 53.0°F11.7°C 80% 5.4 mph W8.7 kmh W 9.2 mph14.8 kmh 30.13 in1020.3 mb 0.01 in0.3 mm 0.00 in0.0 mm 0.01 in0.3 mm
08:45 PM 58.6°F14.8°C 53.5°F11.9°C 83% 5.4 mph NW8.7 kmh NW 6.9 mph11.1 kmh 30.57 in1035.2 mb 0.04 in1.0 mm 0.18 in4.6 mm 0.04 in1.0 mm
09:00 PM 58.5°F14.7°C 54.0°F12.2°C 85% 6.0 mph NW9.7 kmh NW 7.6 mph12.2 kmh 30.57 in1035.2 mb 0.05 in1.3 mm 0.01 in0.3 mm 0.05 in1.3 mm
09:05 PM 58.5°F14.7°C 53.6°F12.0°C 84% 3.8 mph NW6.1 kmh NW 4.5 mph7.2 kmh 30.13 in1020.3 mb 0.05 in1.3 mm 0.00 in0.0 mm 0.05 in1.3 mm
09:15 PM 58.3°F14.6°C 54.1°F12.3°C 86% 3.8 mph NW6.1 kmh NW 9.2 mph14.8 kmh 30.57 in1035.2 mb 0.06 in1.5 mm 0.06 in1.5 mm 0.06 in1.5 mm
09:30 PM 58.3°F14.6°C 54.7°F12.6°C 88% 6.0 mph NW9.7 kmh NW 8.3 mph13.4 kmh 30.58 in1035.6 mb 0.06 in1.5 mm 0.00 in0.0 mm 0.07 in1.8 mm
09:35 PM 58.3°F14.6°C 54.7°F12.6°C 88% 3.8 mph W6.1 kmh W 6.0 mph9.7 kmh 30.13 in1020.3 mb 0.06 in1.5 mm 0.00 in0.0 mm 0.07 in1.8 mm
09:45 PM 58.3°F14.6°C 55.1°F12.8°C 89% 5.4 mph NW8.7 kmh NW 7.6 mph12.2 kmh 30.58 in1035.6 mb 0.04 in1.0 mm 0.00 in0.0 mm 0.07 in1.8 mm
10:00 PM 58.1°F14.5°C 55.2°F12.9°C 90% 6.9 mph NW11.1 kmh NW 9.2 mph14.8 kmh 30.58 in1035.6 mb 0.04 in1.0 mm 0.00 in0.0 mm 0.08 in2.0 mm
10:05 PM 58.1°F14.5°C 55.2°F12.9°C 90% 3.8 mph W6.1 kmh W 5.4 mph8.7 kmh 30.14 in1020.7 mb 0.04 in1.0 mm 0.00 in0.0 mm 0.08 in2.0 mm
10:15 PM 58.1°F14.5°C 55.5°F13.1°C 91% 5.4 mph NNW8.7 kmh NNW 7.6 mph12.2 kmh 30.59 in1035.9 mb 0.04 in1.0 mm 0.00 in0.0 mm 0.09 in2.3 mm
10:30 PM 58.1°F14.5°C 55.5°F13.1°C 91% 5.4 mph NW8.7 kmh NW 10.7 mph17.2 kmh 30.59 in1035.9 mb 0.04 in1.0 mm 0.00 in0.0 mm 0.11 in2.8 mm
10:35 PM 58.1°F14.5°C 55.5°F13.1°C 91% 6.0 mph NW9.7 kmh NW 8.3 mph13.4 kmh 30.15 in1021.0 mb 0.04 in1.0 mm 0.00 in0.0 mm 0.11 in2.8 mm
10:45 PM 57.9°F14.4°C 55.3°F12.9°C 91% 4.5 mph NW7.2 kmh NW 9.2 mph14.8 kmh 30.59 in1035.9 mb 0.04 in1.0 mm 0.00 in0.0 mm 0.11 in2.8 mm
11:00 PM 57.9°F14.4°C 55.6°F13.1°C 92% 6.0 mph NW9.7 kmh NW 7.6 mph12.2 kmh 30.60 in1036.2 mb 0.04 in1.0 mm 0.00 in0.0 mm 0.06 in1.5 mm
11:05 PM 57.9°F14.4°C 55.6°F13.1°C 92% 3.8 mph NW6.1 kmh NW 5.4 mph8.7 kmh 30.16 in1021.3 mb 0.04 in1.0 mm 0.00 in0.0 mm 0.01 in0.3 mm
11:15 PM 57.7°F14.3°C 55.4°F13.0°C 92% 7.6 mph NW12.2 kmh NW 12.1 mph19.5 kmh 30.60 in1036.2 mb 0.04 in1.0 mm 0.00 in0.0 mm 0.01 in0.3 mm
11:30 PM 57.6°F14.2°C 55.3°F12.9°C 92% 4.5 mph NW7.2 kmh NW 9.8 mph15.8 kmh 30.60 in1036.2 mb 0.04 in1.0 mm 0.00 in0.0 mm 0.02 in0.5 mm
11:35 PM 57.6°F14.2°C 55.3°F12.9°C 92% 6.0 mph NW9.7 kmh NW 7.6 mph12.2 kmh 30.16 in1021.3 mb 0.04 in1.0 mm 0.00 in0.0 mm 0.04 in1.0 mm
11:45 PM 57.4°F14.1°C 55.1°F12.8°C 92% 4.5 mph NW7.2 kmh NW 10.7 mph17.2 kmh 30.61 in1036.6 mb 0.05 in1.3 mm 0.06 in1.5 mm 0.04 in1.0 mm